createdAt,value
2022-10-08T00:01:06.879Z,16.80
2022-10-08T00:03:42.798Z,16.80
2022-10-08T00:06:15.399Z,16.70
2022-10-08T00:08:50.165Z,16.80
2022-10-08T00:11:22.659Z,16.70
2022-10-08T00:13:54.689Z,16.70
2022-10-08T00:16:26.993Z,16.70
2022-10-08T00:19:01.287Z,16.70
2022-10-08T00:21:33.148Z,16.60
2022-10-08T00:24:03.382Z,16.60
2022-10-08T00:26:38.576Z,16.60
2022-10-08T00:29:13.442Z,16.60
2022-10-08T00:31:45.432Z,16.60
2022-10-08T00:34:18.923Z,16.60
2022-10-08T00:36:51.974Z,16.60
2022-10-08T00:39:24.093Z,16.60
2022-10-08T00:41:56.278Z,16.60
2022-10-08T00:44:55.397Z,16.60
2022-10-08T00:47:40.242Z,16.70
2022-10-08T00:50:19.669Z,16.70
2022-10-08T00:52:51.894Z,16.70
2022-10-08T00:55:27.075Z,16.70
2022-10-08T00:58:02.153Z,16.70
2022-10-08T01:00:33.437Z,16.70
2022-10-08T01:03:03.729Z,16.70
2022-10-08T01:05:45.547Z,16.60
2022-10-08T01:08:26.006Z,16.60
2022-10-08T01:11:04.086Z,16.60
2022-10-08T01:13:43.025Z,16.60
2022-10-08T01:16:27.368Z,16.50
2022-10-08T01:19:09.575Z,16.50
2022-10-08T01:21:50.127Z,16.40
2022-10-08T01:24:47.014Z,16.40
2022-10-08T01:27:25.629Z,16.40
2022-10-08T01:29:56.023Z,16.30
2022-10-08T01:32:31.599Z,16.30
2022-10-08T01:35:05.548Z,16.30
2022-10-08T01:37:39.977Z,16.30
2022-10-08T01:40:15.226Z,16.30
2022-10-08T01:42:49.418Z,16.30
2022-10-08T01:45:24.894Z,16.30
2022-10-08T01:47:58.353Z,16.30
2022-10-08T01:50:34.238Z,16.30
2022-10-08T01:53:07.611Z,16.30
2022-10-08T01:55:40.347Z,16.30
2022-10-08T01:58:16.062Z,16.30
2022-10-08T02:00:46.786Z,16.30
2022-10-08T02:03:17.049Z,16.30
2022-10-08T02:05:50.418Z,16.30
2022-10-08T02:08:23.013Z,16.30
2022-10-08T02:10:53.179Z,16.20
2022-10-08T02:13:24.233Z,16.20
2022-10-08T02:16:01.627Z,16.20
2022-10-08T02:18:40.771Z,16.30
2022-10-08T02:21:16.865Z,16.30
2022-10-08T02:23:54.166Z,16.30
2022-10-08T02:26:29.728Z,16.20
2022-10-08T02:29:04.941Z,16.30
2022-10-08T02:31:40.723Z,16.20
2022-10-08T02:34:16.920Z,16.20
2022-10-08T02:36:49.514Z,16.20
2022-10-08T02:39:20.994Z,16.10
2022-10-08T02:41:53.734Z,16.10
2022-10-08T02:44:33.125Z,16.10
2022-10-08T02:47:08.643Z,16.10
2022-10-08T02:49:42.233Z,16.10
2022-10-08T02:52:13.397Z,16.20
2022-10-08T02:54:45.675Z,16.10
2022-10-08T02:57:19.804Z,16.10
2022-10-08T02:59:50.415Z,16.10
2022-10-08T03:02:27.601Z,16.10
2022-10-08T03:05:02.507Z,16.20
2022-10-08T03:07:33.971Z,16.20
2022-10-08T03:10:07.020Z,16.20
2022-10-08T03:12:36.373Z,16.20
2022-10-08T03:15:11.672Z,16.20
2022-10-08T03:17:45.714Z,16.20
2022-10-08T03:20:15.454Z,16.20
2022-10-08T03:22:44.994Z,16.20
2022-10-08T03:25:14.079Z,16.20
2022-10-08T03:27:43.157Z,16.20
2022-10-08T03:30:15.103Z,16.20
2022-10-08T03:32:44.826Z,16.20
2022-10-08T03:35:16.317Z,16.20
2022-10-08T03:37:45.261Z,16.30
2022-10-08T03:40:14.414Z,16.20
2022-10-08T03:42:43.451Z,16.30
2022-10-08T03:45:13.989Z,16.20
2022-10-08T03:47:42.916Z,16.20
2022-10-08T03:50:12.049Z,16.20
2022-10-08T03:52:41.070Z,16.20
2022-10-08T03:55:10.452Z,16.20
2022-10-08T03:57:39.421Z,16.20
2022-10-08T04:00:10.554Z,16.20
2022-10-08T04:02:41.108Z,16.30
2022-10-08T04:05:10.739Z,16.30
2022-10-08T04:07:39.810Z,16.30
2022-10-08T04:10:09.954Z,16.30
2022-10-08T04:12:39.117Z,16.40
2022-10-08T04:15:09.883Z,16.40
2022-10-08T04:17:41.943Z,16.40
2022-10-08T04:20:11.345Z,16.40
2022-10-08T04:22:40.548Z,16.40
2022-10-08T04:25:09.910Z,16.40
2022-10-08T04:27:38.831Z,16.40
2022-10-08T04:30:09.930Z,16.40
2022-10-08T04:32:40.511Z,16.40
2022-10-08T04:35:10.116Z,16.50
2022-10-08T04:37:39.022Z,16.40
2022-10-08T04:40:10.156Z,16.50
2022-10-08T04:42:39.096Z,16.50
2022-10-08T04:45:09.238Z,16.40
2022-10-08T04:47:40.030Z,16.50
2022-10-08T04:50:10.135Z,16.50
2022-10-08T04:52:39.148Z,16.40
2022-10-08T04:55:10.334Z,16.40
2022-10-08T04:57:39.370Z,16.40
2022-10-08T05:00:24.462Z,16.40
2022-10-08T05:02:55.104Z,16.40
2022-10-08T05:05:24.543Z,16.40
2022-10-08T05:07:56.632Z,16.40
2022-10-08T05:10:30.124Z,16.40
2022-10-08T05:12:59.193Z,16.40
2022-10-08T05:15:28.663Z,17.20
2022-10-08T05:17:59.555Z,16.40
2022-10-08T05:20:28.509Z,16.40
2022-10-08T05:22:57.518Z,16.40
2022-10-08T05:25:26.463Z,16.30
2022-10-08T05:27:55.534Z,16.30
2022-10-08T05:30:24.795Z,16.40
2022-10-08T05:32:53.899Z,16.40
2022-10-08T05:35:24.342Z,16.40
2022-10-08T05:37:53.450Z,16.30
2022-10-08T05:40:24.354Z,16.30
2022-10-08T05:42:54.091Z,16.20
2022-10-08T05:45:23.536Z,16.20
2022-10-08T05:47:52.549Z,16.20
2022-10-08T05:50:22.831Z,16.20
2022-10-08T05:52:51.956Z,16.20
2022-10-08T05:55:21.332Z,16.30
2022-10-08T05:57:50.692Z,16.30
2022-10-08T06:00:20.642Z,16.30
2022-10-08T06:02:51.090Z,16.20
2022-10-08T06:05:20.186Z,16.30
2022-10-08T06:07:52.972Z,16.20
2022-10-08T06:10:21.945Z,16.20
2022-10-08T06:12:51.028Z,16.20
2022-10-08T06:15:19.981Z,16.20
2022-10-08T06:17:51.548Z,16.20
2022-10-08T06:20:20.869Z,16.10
2022-10-08T06:22:51.260Z,16.20
2022-10-08T06:25:20.250Z,16.20
2022-10-08T06:27:49.261Z,16.30
2022-10-08T06:30:18.634Z,16.30
2022-10-08T06:32:47.889Z,16.30
2022-10-08T06:35:17.343Z,16.50
2022-10-08T06:37:50.807Z,16.30
2022-10-08T06:40:20.026Z,16.40
2022-10-08T06:42:49.700Z,16.40
2022-10-08T06:45:19.368Z,16.40
2022-10-08T06:47:49.628Z,16.40
2022-10-08T06:50:18.655Z,16.40
2022-10-08T06:52:49.228Z,16.40
2022-10-08T06:55:20.012Z,16.40
2022-10-08T06:57:50.091Z,16.50
2022-10-08T07:00:20.146Z,16.50
2022-10-08T07:02:49.637Z,16.50
2022-10-08T07:05:19.297Z,16.60
2022-10-08T07:07:48.341Z,16.60
2022-10-08T07:10:19.213Z,16.60
2022-10-08T07:12:48.493Z,16.70
2022-10-08T07:15:17.840Z,16.70
2022-10-08T07:17:47.020Z,16.70
2022-10-08T07:20:16.503Z,16.70
2022-10-08T07:22:45.875Z,16.80
2022-10-08T07:25:15.280Z,16.80
2022-10-08T07:27:46.119Z,16.90
2022-10-08T07:30:15.253Z,16.90
2022-10-08T07:32:44.539Z,16.90
2022-10-08T07:35:16.104Z,16.80
2022-10-08T07:37:45.606Z,16.80
2022-10-08T07:40:14.732Z,16.90
2022-10-08T07:42:45.436Z,17.00
2022-10-08T07:45:14.711Z,17.10
2022-10-08T07:47:43.779Z,16.70
2022-10-08T07:50:13.003Z,16.60
2022-10-08T07:52:42.021Z,16.60
2022-10-08T07:55:10.987Z,16.60
2022-10-08T07:57:39.947Z,16.60
2022-10-08T08:00:12.407Z,16.50
2022-10-08T08:02:49.611Z,16.60
2022-10-08T08:05:19.055Z,16.50
2022-10-08T08:07:53.041Z,16.60
2022-10-08T08:10:22.447Z,16.70
2022-10-08T08:12:51.460Z,16.80
2022-10-08T08:15:21.889Z,16.90
2022-10-08T08:17:50.996Z,16.90
2022-10-08T08:20:22.179Z,16.80
2022-10-08T08:22:51.771Z,16.70
2022-10-08T08:25:20.774Z,16.70
2022-10-08T08:27:49.947Z,16.70
2022-10-08T08:30:19.231Z,16.60
2022-10-08T08:32:51.969Z,16.60
2022-10-08T08:35:21.105Z,16.50
2022-10-08T08:37:58.499Z,16.30
2022-10-08T08:40:29.326Z,16.30
2022-10-08T08:42:59.285Z,16.40
2022-10-08T08:45:47.670Z,16.30
2022-10-08T08:48:24.464Z,16.30
2022-10-08T08:50:57.077Z,16.20
2022-10-08T08:53:26.608Z,16.10
2022-10-08T08:55:59.824Z,16.20
2022-10-08T08:58:39.073Z,16.30
2022-10-08T09:01:19.891Z,16.40
2022-10-08T09:03:54.501Z,16.50
2022-10-08T09:06:26.935Z,16.40
2022-10-08T09:09:00.930Z,16.50
2022-10-08T09:11:31.340Z,16.60
2022-10-08T09:14:14.760Z,16.60
2022-10-08T09:16:44.157Z,16.70
2022-10-08T09:19:14.695Z,16.90
2022-10-08T09:21:43.845Z,17.00
2022-10-08T09:24:13.309Z,16.90
2022-10-08T09:26:42.979Z,16.90
2022-10-08T09:29:34.098Z,16.90
2022-10-08T09:32:03.268Z,16.90
2022-10-08T09:34:34.469Z,17.10
2022-10-08T09:37:16.252Z,17.20
2022-10-08T09:40:18.943Z,17.30
2022-10-08T09:43:22.939Z,17.30
2022-10-08T09:46:32.897Z,17.00
2022-10-08T09:50:18.178Z,17.00
2022-10-08T09:52:51.501Z,17.00
2022-10-08T09:55:25.266Z,16.80
2022-10-08T09:58:00.272Z,16.70
2022-10-08T10:00:35.363Z,16.90
2022-10-08T10:03:07.760Z,17.00
2022-10-08T10:05:38.268Z,17.00
2022-10-08T10:08:32.465Z,17.00
2022-10-08T10:11:01.945Z,17.10
2022-10-08T10:13:36.319Z,17.20
2022-10-08T10:16:11.939Z,17.10
2022-10-08T10:18:52.848Z,17.10
2022-10-08T10:21:30.978Z,17.10
2022-10-08T10:24:28.694Z,17.10
2022-10-08T10:27:06.850Z,17.00
2022-10-08T10:29:48.742Z,17.00
2022-10-08T10:32:23.876Z,17.00
2022-10-08T10:35:04.971Z,16.90
2022-10-08T10:37:44.573Z,17.00
2022-10-08T10:40:32.546Z,17.20
2022-10-08T10:43:27.952Z,17.20
2022-10-08T10:46:29.999Z,17.40
2022-10-08T10:49:00.087Z,17.60
2022-10-08T10:51:42.066Z,17.60
2022-10-08T10:54:45.275Z,17.80
2022-10-08T10:57:31.392Z,17.80
2022-10-08T11:00:06.431Z,17.70
2022-10-08T11:02:44.596Z,17.60
2022-10-08T11:05:20.990Z,17.40
2022-10-08T11:08:27.108Z,17.40
2022-10-08T11:11:17.553Z,17.40
2022-10-08T11:14:05.395Z,17.30
2022-10-08T11:17:00.781Z,17.40
2022-10-08T11:19:42.714Z,17.40
2022-10-08T11:22:21.885Z,17.50
2022-10-08T11:25:08.770Z,17.40
2022-10-08T11:27:50.098Z,17.40
2022-10-08T11:30:24.381Z,17.60
2022-10-08T11:32:56.992Z,17.60
2022-10-08T11:35:34.189Z,17.40
2022-10-08T11:38:16.169Z,17.40
2022-10-08T11:40:49.751Z,17.40
2022-10-08T11:43:29.032Z,17.50
2022-10-08T11:46:30.126Z,17.60
2022-10-08T11:49:01.838Z,17.50
2022-10-08T11:51:38.837Z,17.30
2022-10-08T11:54:13.919Z,17.40
2022-10-08T11:56:46.756Z,17.40
2022-10-08T11:59:36.784Z,17.20
2022-10-08T12:02:23.017Z,17.30
2022-10-08T12:04:54.576Z,17.50
2022-10-08T12:07:31.063Z,17.50
2022-10-08T12:10:33.976Z,17.60
2022-10-08T12:13:30.582Z,17.80
2022-10-08T12:16:06.865Z,18.00
2022-10-08T12:18:55.420Z,18.10
2022-10-08T12:21:54.732Z,18.10
2022-10-08T12:24:59.819Z,17.90
2022-10-08T12:27:39.976Z,17.80
2022-10-08T12:30:12.325Z,17.90
2022-10-08T12:32:57.593Z,17.90
2022-10-08T12:35:32.284Z,17.80
2022-10-08T12:38:30.560Z,17.70
2022-10-08T12:41:17.604Z,17.60
2022-10-08T12:43:54.109Z,17.70
2022-10-08T12:46:35.416Z,17.50
2022-10-08T12:49:16.610Z,17.60
2022-10-08T12:51:53.844Z,17.70
2022-10-08T12:54:26.625Z,17.70
2022-10-08T12:56:56.730Z,17.70
2022-10-08T12:59:31.683Z,17.60
2022-10-08T13:02:01.139Z,17.60
2022-10-08T13:04:33.881Z,17.60
2022-10-08T13:07:26.482Z,17.70
2022-10-08T13:09:57.418Z,17.80
2022-10-08T13:12:26.974Z,18.10
2022-10-08T13:15:05.895Z,18.10
2022-10-08T13:17:37.636Z,18.20
2022-10-08T13:20:13.672Z,18.30
2022-10-08T13:22:44.875Z,18.20
2022-10-08T13:25:48.774Z,18.10
2022-10-08T13:28:41.616Z,18.10
2022-10-08T13:31:24.302Z,18.10
2022-10-08T13:33:53.695Z,18.10
2022-10-08T13:36:25.573Z,17.90
2022-10-08T13:38:56.263Z,17.90
2022-10-08T13:41:25.358Z,17.90
2022-10-08T13:43:54.436Z,17.90
2022-10-08T13:46:23.491Z,18.20
2022-10-08T13:48:52.594Z,18.20
2022-10-08T13:51:21.667Z,17.70
2022-10-08T13:53:54.838Z,17.80
2022-10-08T13:56:27.518Z,17.90
2022-10-08T13:58:59.670Z,17.60
2022-10-08T14:01:28.710Z,17.70
2022-10-08T14:03:57.978Z,17.50
2022-10-08T14:06:27.233Z,18.20
2022-10-08T14:08:56.501Z,17.70
2022-10-08T14:11:27.589Z,17.80
2022-10-08T14:13:56.733Z,17.80
2022-10-08T14:16:25.965Z,17.80
2022-10-08T14:18:59.090Z,17.70
2022-10-08T14:21:28.477Z,17.80
2022-10-08T14:23:57.625Z,17.80
2022-10-08T14:26:30.136Z,17.70
2022-10-08T14:29:00.242Z,17.70
2022-10-08T14:31:29.820Z,17.70
2022-10-08T14:33:59.006Z,17.60
2022-10-08T14:36:34.801Z,17.50
2022-10-08T14:39:04.881Z,17.50
2022-10-08T14:41:35.496Z,17.50
2022-10-08T14:44:04.832Z,17.60
2022-10-08T14:46:34.078Z,17.60
2022-10-08T14:49:04.717Z,17.60
2022-10-08T14:51:38.533Z,17.60
2022-10-08T14:54:08.233Z,17.80
2022-10-08T14:56:45.603Z,17.70
2022-10-08T14:59:14.908Z,17.60
2022-10-08T15:01:46.314Z,17.80
2022-10-08T15:04:16.353Z,17.70
2022-10-08T15:06:45.644Z,18.60
2022-10-08T15:09:16.517Z,17.70
2022-10-08T15:11:49.078Z,17.70
2022-10-08T15:14:18.337Z,17.70
2022-10-08T15:16:47.642Z,17.50
2022-10-08T15:19:21.053Z,17.60
2022-10-08T15:21:53.045Z,17.60
2022-10-08T15:24:22.221Z,17.50
2022-10-08T15:26:53.011Z,17.50
2022-10-08T15:29:23.041Z,17.60
2022-10-08T15:31:55.159Z,17.60
2022-10-08T15:34:24.254Z,17.70
2022-10-08T15:36:56.048Z,17.70
2022-10-08T15:39:25.228Z,17.70
2022-10-08T15:41:57.112Z,17.70
2022-10-08T15:44:29.332Z,17.80
2022-10-08T15:47:02.559Z,17.70
2022-10-08T15:49:33.083Z,17.80
2022-10-08T15:52:04.054Z,17.80
2022-10-08T15:54:35.618Z,17.80
2022-10-08T15:57:07.801Z,17.90
2022-10-08T15:59:37.534Z,17.70
2022-10-08T16:02:07.564Z,17.70
2022-10-08T16:04:36.793Z,17.60
2022-10-08T16:07:06.062Z,17.60
2022-10-08T16:09:35.699Z,17.60
2022-10-08T16:12:06.522Z,17.60
2022-10-08T16:14:36.117Z,17.60
2022-10-08T16:17:05.965Z,17.60
2022-10-08T16:19:35.159Z,17.50
2022-10-08T16:22:05.598Z,17.50
2022-10-08T16:24:35.058Z,17.40
2022-10-08T16:27:05.869Z,17.30
2022-10-08T16:29:34.886Z,17.10
2022-10-08T16:32:04.005Z,17.10
2022-10-08T16:34:33.107Z,17.00
2022-10-08T16:37:02.686Z,16.80
2022-10-08T16:39:31.746Z,16.90
2022-10-08T16:42:01.102Z,16.90
2022-10-08T16:44:31.794Z,16.90
2022-10-08T16:47:00.910Z,17.00
2022-10-08T16:49:30.579Z,16.90
2022-10-08T16:52:04.314Z,17.00
2022-10-08T16:54:34.076Z,17.00
2022-10-08T16:57:03.312Z,17.00
2022-10-08T16:59:34.011Z,17.00
2022-10-08T17:02:03.372Z,17.10
2022-10-08T17:04:39.095Z,17.10
2022-10-08T17:07:08.345Z,17.10
2022-10-08T17:09:38.204Z,17.10
2022-10-08T17:12:07.318Z,17.10
2022-10-08T17:14:38.667Z,17.00
2022-10-08T17:17:07.718Z,17.10
2022-10-08T17:19:36.881Z,17.00
2022-10-08T17:22:06.409Z,17.00
2022-10-08T17:24:38.970Z,16.90
2022-10-08T17:27:11.735Z,16.90
2022-10-08T17:29:42.135Z,16.90
2022-10-08T17:32:11.568Z,16.90
2022-10-08T17:34:40.695Z,16.80
2022-10-08T17:37:10.703Z,16.70
2022-10-08T17:39:39.845Z,16.60
2022-10-08T17:42:08.954Z,16.60
2022-10-08T17:44:38.048Z,16.50
2022-10-08T17:47:08.441Z,16.50
2022-10-08T17:49:37.585Z,16.40
2022-10-08T17:52:06.721Z,16.30
2022-10-08T17:54:35.782Z,16.30
2022-10-08T17:57:04.969Z,16.20
2022-10-08T17:59:34.270Z,16.10
2022-10-08T18:02:04.008Z,16.10
2022-10-08T18:04:34.502Z,16.10
2022-10-08T18:07:03.838Z,16.00
2022-10-08T18:09:33.491Z,16.00
2022-10-08T18:12:02.552Z,15.90
2022-10-08T18:14:31.653Z,15.90
2022-10-08T18:17:00.826Z,15.80
2022-10-08T18:19:30.034Z,15.80
2022-10-08T18:22:00.690Z,15.70
2022-10-08T18:24:31.256Z,15.70
2022-10-08T18:27:00.374Z,15.60
2022-10-08T18:29:29.388Z,15.60
2022-10-08T18:31:58.557Z,15.60
2022-10-08T18:34:28.801Z,15.50
2022-10-08T18:36:58.102Z,15.50
2022-10-08T18:39:28.925Z,15.40
2022-10-08T18:41:57.881Z,15.40
2022-10-08T18:44:28.099Z,15.40
2022-10-08T18:46:59.658Z,15.30
2022-10-08T18:49:33.789Z,15.30
2022-10-08T18:52:03.865Z,15.20
2022-10-08T18:54:34.825Z,15.10
2022-10-08T18:57:03.894Z,15.10
2022-10-08T18:59:34.996Z,15.00
2022-10-08T19:02:04.161Z,14.90
2022-10-08T19:04:33.354Z,14.90
2022-10-08T19:07:03.046Z,14.90
2022-10-08T19:09:34.141Z,14.80
2022-10-08T19:12:04.256Z,14.80
2022-10-08T19:14:33.408Z,14.80
2022-10-08T19:17:04.086Z,14.70
2022-10-08T19:19:33.115Z,14.70
2022-10-08T19:22:02.177Z,14.70
2022-10-08T19:24:31.436Z,14.60
2022-10-08T19:27:01.755Z,14.60
2022-10-08T19:29:33.603Z,14.60
2022-10-08T19:32:03.916Z,14.60
2022-10-08T19:34:33.410Z,14.60
2022-10-08T19:37:02.490Z,14.50
2022-10-08T19:39:31.882Z,14.50
2022-10-08T19:42:02.250Z,14.50
2022-10-08T19:44:31.478Z,14.40
2022-10-08T19:47:00.575Z,14.40
2022-10-08T19:49:30.427Z,14.40
2022-10-08T19:51:59.635Z,14.40
2022-10-08T19:54:28.852Z,14.40
2022-10-08T19:56:57.911Z,14.40
2022-10-08T19:59:28.452Z,14.40
2022-10-08T20:01:57.817Z,14.30
2022-10-08T20:04:26.978Z,14.40
2022-10-08T20:06:56.015Z,14.30
2022-10-08T20:09:25.822Z,14.30
2022-10-08T20:11:56.451Z,14.30
2022-10-08T20:14:27.504Z,14.30
2022-10-08T20:16:56.482Z,14.20
2022-10-08T20:19:25.963Z,14.20
2022-10-08T20:21:56.027Z,14.20
2022-10-08T20:24:27.410Z,14.10
2022-10-08T20:26:56.277Z,14.10
2022-10-08T20:29:30.010Z,14.10
2022-10-08T20:32:01.455Z,14.10
2022-10-08T20:34:31.713Z,14.00
2022-10-08T20:37:02.402Z,14.00
2022-10-08T20:39:31.674Z,14.00
2022-10-08T20:42:00.642Z,14.00
2022-10-08T20:44:29.734Z,14.00
2022-10-08T20:47:00.515Z,14.00
2022-10-08T20:49:35.843Z,14.00
2022-10-08T20:52:05.375Z,14.00
2022-10-08T20:54:34.586Z,14.00
2022-10-08T20:57:03.739Z,13.90
2022-10-08T20:59:33.921Z,13.90
2022-10-08T21:02:03.956Z,13.90
2022-10-08T21:04:34.705Z,13.80
2022-10-08T21:07:03.878Z,13.70
2022-10-08T21:09:33.172Z,13.70
2022-10-08T21:12:02.173Z,13.70
2022-10-08T21:14:31.400Z,13.60
2022-10-08T21:17:00.538Z,13.60
2022-10-08T21:19:29.842Z,13.50
2022-10-08T21:22:00.170Z,13.50
2022-10-08T21:24:29.268Z,13.40
2022-10-08T21:27:01.430Z,13.50
2022-10-08T21:29:30.427Z,13.40
2022-10-08T21:31:59.466Z,13.40
2022-10-08T21:34:28.476Z,13.30
2022-10-08T21:36:58.829Z,13.30
2022-10-08T21:39:27.863Z,13.20
2022-10-08T21:41:56.770Z,13.10
2022-10-08T21:44:25.908Z,13.10
2022-10-08T21:46:54.853Z,12.90
2022-10-08T21:49:25.211Z,12.90
2022-10-08T21:51:54.221Z,12.90
2022-10-08T21:54:24.527Z,12.90
2022-10-08T21:56:53.494Z,12.90
2022-10-08T21:59:22.596Z,12.90
2022-10-08T22:01:52.024Z,12.90
2022-10-08T22:04:24.321Z,12.90
2022-10-08T22:06:57.684Z,12.90
2022-10-08T22:09:30.748Z,12.90
2022-10-08T22:12:02.104Z,12.90
2022-10-08T22:14:31.444Z,12.90
2022-10-08T22:17:00.581Z,12.90
2022-10-08T22:19:29.810Z,12.80
2022-10-08T22:21:58.917Z,12.70
2022-10-08T22:24:29.304Z,12.60
2022-10-08T22:26:58.276Z,12.60
2022-10-08T22:29:27.409Z,12.60
2022-10-08T22:31:56.523Z,12.50
2022-10-08T22:34:25.587Z,12.50
2022-10-08T22:36:54.634Z,12.40
2022-10-08T22:39:23.570Z,12.40
2022-10-08T22:41:53.865Z,12.30
2022-10-08T22:44:22.962Z,12.30
2022-10-08T22:46:51.871Z,12.30
2022-10-08T22:49:20.882Z,12.30
2022-10-08T22:51:49.891Z,12.20
2022-10-08T22:54:19.091Z,12.20
2022-10-08T22:56:48.071Z,12.20
2022-10-08T22:59:25.924Z,12.20
2022-10-08T23:01:58.568Z,12.20
2022-10-08T23:04:27.599Z,12.20
2022-10-08T23:06:56.586Z,12.20
2022-10-08T23:09:25.659Z,12.10
2022-10-08T23:11:54.594Z,12.00
2022-10-08T23:14:25.033Z,11.90
2022-10-08T23:16:54.187Z,11.90
2022-10-08T23:19:23.386Z,12.00
2022-10-08T23:21:52.295Z,12.00
2022-10-08T23:24:21.544Z,12.00
2022-10-08T23:26:50.754Z,12.00
2022-10-08T23:29:19.805Z,12.00
2022-10-08T23:31:50.138Z,11.90
2022-10-08T23:34:19.234Z,11.90
2022-10-08T23:36:48.422Z,11.80
2022-10-08T23:39:18.299Z,11.80
2022-10-08T23:41:47.337Z,11.80
2022-10-08T23:44:16.314Z,11.70
2022-10-08T23:46:45.626Z,11.70
2022-10-08T23:49:16.298Z,11.70
2022-10-08T23:51:45.246Z,11.70
2022-10-08T23:54:14.295Z,11.70
2022-10-08T23:56:43.298Z,11.70
2022-10-08T23:59:12.377Z,11.70
